Alpine, Idaho
Current Conditions -  °F | °C
As of 10:51 AM on Sunday 25 Jan 2015 (Local Time) from KMYL Reporting Station
Moderate Fog Moderate Fog  
Wind Chill: 33°   Ceiling: 300
Heat Index: 33°   Visibility: 0.5mi
Dew Point: 33°   Wind: 3mph
Humidity: 100%   Direction: 200°SSW
Pressure: 30.42"   Gusts: NA
Location:  44.6782°N, 116.766°W
Report Text: KMYL 251751Z AUTO 20003KT 1/2SM FG OVC003 01/01 A3042 RMK AO2 SLP322 T00060006 10011 20000 53007
Loading
Personal Weather Stations






























Interactive Weather Map New forecast layout! Learn more

10-Day Weather Forecast

Advertisements
Track Severe Weather on mobile